sensor_id;sensor_type;location;lat;lon;timestamp;pressure;altitude;pressure_sealevel;temperature;humidity
3544;BME280;1786;52.870;9.578;2024-01-15T00:00:57;98608.84;;;7.75;66.88
3544;BME280;1786;52.870;9.578;2024-01-15T00:03:24;98607.44;;;7.92;66.63
3544;BME280;1786;52.870;9.578;2024-01-15T00:05:50;98604.84;;;7.71;66.66
3544;BME280;1786;52.870;9.578;2024-01-15T00:08:17;98604.28;;;7.98;66.40
3544;BME280;1786;52.870;9.578;2024-01-15T00:10:44;98593.97;;;7.65;66.28
3544;BME280;1786;52.870;9.578;2024-01-15T00:13:10;98589.09;;;8.02;64.97
3544;BME280;1786;52.870;9.578;2024-01-15T00:15:37;98584.31;;;7.65;66.35
3544;BME280;1786;52.870;9.578;2024-01-15T00:18:04;98580.09;;;7.74;66.14
3544;BME280;1786;52.870;9.578;2024-01-15T00:20:31;98589.81;;;7.62;66.16
3544;BME280;1786;52.870;9.578;2024-01-15T00:22:58;98576.13;;;6.94;67.61
3544;BME280;1786;52.870;9.578;2024-01-15T00:25:24;98569.78;;;6.97;67.76
3544;BME280;1786;52.870;9.578;2024-01-15T00:27:51;98565.75;;;7.25;67.34
3544;BME280;1786;52.870;9.578;2024-01-15T00:30:18;98573.34;;;7.07;67.25
3544;BME280;1786;52.870;9.578;2024-01-15T00:32:44;98574.72;;;7.22;66.83
3544;BME280;1786;52.870;9.578;2024-01-15T00:35:11;98567.84;;;7.10;67.43
3544;BME280;1786;52.870;9.578;2024-01-15T00:37:38;98567.94;;;7.41;66.88
3544;BME280;1786;52.870;9.578;2024-01-15T00:40:05;98560.75;;;7.43;66.33
3544;BME280;1786;52.870;9.578;2024-01-15T00:42:32;98546.53;;;7.24;66.76
3544;BME280;1786;52.870;9.578;2024-01-15T00:44:59;98551.09;;;7.64;65.91
3544;BME280;1786;52.870;9.578;2024-01-15T00:47:26;98551.25;;;7.09;66.60
3544;BME280;1786;52.870;9.578;2024-01-15T00:49:52;98553.66;;;7.33;66.24
3544;BME280;1786;52.870;9.578;2024-01-15T00:52:19;98543.84;;;7.35;65.88
3544;BME280;1786;52.870;9.578;2024-01-15T00:54:46;98536.13;;;7.02;66.81
3544;BME280;1786;52.870;9.578;2024-01-15T00:57:12;98534.03;;;7.17;66.34
3544;BME280;1786;52.870;9.578;2024-01-15T00:59:39;98544.91;;;7.12;66.46
3544;BME280;1786;52.870;9.578;2024-01-15T01:02:06;98537.56;;;6.94;67.16
3544;BME280;1786;52.870;9.578;2024-01-15T01:04:32;98532.44;;;7.25;66.64
3544;BME280;1786;52.870;9.578;2024-01-15T01:06:59;98518.47;;;7.46;66.14
3544;BME280;1786;52.870;9.578;2024-01-15T01:09:27;98527.91;;;7.69;65.15
3544;BME280;1786;52.870;9.578;2024-01-15T01:11:56;98532.34;;;7.15;66.47
3544;BME280;1786;52.870;9.578;2024-01-15T01:14:23;98534.88;;;7.17;66.85
3544;BME280;1786;52.870;9.578;2024-01-15T01:16:50;98535.91;;;7.47;66.16
3544;BME280;1786;52.870;9.578;2024-01-15T01:19:16;98540.75;;;7.30;66.23
3544;BME280;1786;52.870;9.578;2024-01-15T01:21:43;98531.03;;;7.21;66.93
3544;BME280;1786;52.870;9.578;2024-01-15T01:24:10;98520.59;;;7.52;65.69
3544;BME280;1786;52.870;9.578;2024-01-15T01:26:37;98519.56;;;7.22;66.19
3544;BME280;1786;52.870;9.578;2024-01-15T01:29:03;98524.25;;;7.19;66.26
3544;BME280;1786;52.870;9.578;2024-01-15T01:31:30;98513.75;;;7.40;66.44
3544;BME280;1786;52.870;9.578;2024-01-15T01:33:57;98514.75;;;7.27;66.12
3544;BME280;1786;52.870;9.578;2024-01-15T01:36:23;98522.59;;;7.39;65.71
3544;BME280;1786;52.870;9.578;2024-01-15T01:38:50;98509.63;;;7.47;65.40
3544;BME280;1786;52.870;9.578;2024-01-15T01:41:17;98511.88;;;7.09;66.20
3544;BME280;1786;52.870;9.578;2024-01-15T01:43:43;98510.59;;;7.46;65.67
3544;BME280;1786;52.870;9.578;2024-01-15T01:46:10;98518.84;;;7.62;65.17
3544;BME280;1786;52.870;9.578;2024-01-15T01:48:39;98510.28;;;7.39;65.55
3544;BME280;1786;52.870;9.578;2024-01-15T01:51:06;98514.38;;;7.11;66.00
3544;BME280;1786;52.870;9.578;2024-01-15T01:53:34;98514.16;;;7.03;66.58
3544;BME280;1786;52.870;9.578;2024-01-15T01:56:02;98503.34;;;7.17;66.52
3544;BME280;1786;52.870;9.578;2024-01-15T01:58:30;98490.22;;;6.96;66.64
3544;BME280;1786;52.870;9.578;2024-01-15T02:00:58;98493.13;;;6.82;67.10
3544;BME280;1786;52.870;9.578;2024-01-15T02:03:27;98498.28;;;6.72;68.02
3544;BME280;1786;52.870;9.578;2024-01-15T02:05:54;98492.66;;;6.77;67.90
3544;BME280;1786;52.870;9.578;2024-01-15T02:08:21;98492.84;;;6.64;68.17
3544;BME280;1786;52.870;9.578;2024-01-15T02:10:48;98495.03;;;7.33;66.86
3544;BME280;1786;52.870;9.578;2024-01-15T02:13:15;98493.81;;;7.37;66.99
3544;BME280;1786;52.870;9.578;2024-01-15T02:15:41;98486.44;;;7.83;65.83
3544;BME280;1786;52.870;9.578;2024-01-15T02:18:08;98490.38;;;7.67;66.18
3544;BME280;1786;52.870;9.578;2024-01-15T02:20:36;98484.97;;;7.17;67.29
3544;BME280;1786;52.870;9.578;2024-01-15T02:23:08;98494.75;;;6.62;68.96
3544;BME280;1786;52.870;9.578;2024-01-15T02:25:41;98489.47;;;6.73;69.02
3544;BME280;1786;52.870;9.578;2024-01-15T02:28:10;98476.91;;;7.30;67.51
3544;BME280;1786;52.870;9.578;2024-01-15T02:30:38;98481.63;;;6.94;68.71
3544;BME280;1786;52.870;9.578;2024-01-15T02:33:06;98466.03;;;6.81;68.14
3544;BME280;1786;52.870;9.578;2024-01-15T02:35:34;98470.19;;;6.52;69.36
3544;BME280;1786;52.870;9.578;2024-01-15T02:38:04;98474.63;;;6.83;69.19
3544;BME280;1786;52.870;9.578;2024-01-15T02:40:31;98464.88;;;6.74;69.09
3544;BME280;1786;52.870;9.578;2024-01-15T02:42:57;98474.19;;;6.67;69.49
3544;BME280;1786;52.870;9.578;2024-01-15T02:45:24;98468.03;;;6.89;68.85
3544;BME280;1786;52.870;9.578;2024-01-15T02:47:51;98465.06;;;6.61;69.65
3544;BME280;1786;52.870;9.578;2024-01-15T02:50:18;98468.53;;;6.83;69.08
3544;BME280;1786;52.870;9.578;2024-01-15T02:52:44;98459.72;;;6.52;69.84
3544;BME280;1786;52.870;9.578;2024-01-15T02:55:11;98455.44;;;6.39;69.78
3544;BME280;1786;52.870;9.578;2024-01-15T02:57:37;98465.59;;;6.76;69.61
3544;BME280;1786;52.870;9.578;2024-01-15T03:00:04;98474.03;;;6.80;69.36
3544;BME280;1786;52.870;9.578;2024-01-15T03:02:31;98478.88;;;6.96;68.75
3544;BME280;1786;52.870;9.578;2024-01-15T03:04:58;98480.19;;;6.90;68.78
3544;BME280;1786;52.870;9.578;2024-01-15T03:07:25;98480.25;;;7.11;68.78
3544;BME280;1786;52.870;9.578;2024-01-15T03:09:51;98478.63;;;6.99;68.70
3544;BME280;1786;52.870;9.578;2024-01-15T03:12:18;98486.88;;;7.15;68.29
3544;BME280;1786;52.870;9.578;2024-01-15T03:14:45;98493.66;;;6.97;68.76
3544;BME280;1786;52.870;9.578;2024-01-15T03:17:11;98477.94;;;7.39;67.32
3544;BME280;1786;52.870;9.578;2024-01-15T03:19:38;98476.63;;;7.54;67.16
3544;BME280;1786;52.870;9.578;2024-01-15T03:22:05;98477.28;;;7.46;67.55
3544;BME280;1786;52.870;9.578;2024-01-15T03:24:35;98480.78;;;7.35;67.19
3544;BME280;1786;52.870;9.578;2024-01-15T03:27:02;98478.88;;;6.96;68.40
3544;BME280;1786;52.870;9.578;2024-01-15T03:29:28;98483.34;;;7.05;68.27
3544;BME280;1786;52.870;9.578;2024-01-15T03:31:55;98485.06;;;6.74;68.73
3544;BME280;1786;52.870;9.578;2024-01-15T03:34:22;98480.81;;;6.82;68.61
3544;BME280;1786;52.870;9.578;2024-01-15T03:36:48;98496.28;;;6.97;68.71
3544;BME280;1786;52.870;9.578;2024-01-15T03:39:15;98496.53;;;6.93;68.84
3544;BME280;1786;52.870;9.578;2024-01-15T03:41:42;98496.75;;;7.02;68.96
3544;BME280;1786;52.870;9.578;2024-01-15T03:44:09;98499.56;;;7.10;68.01
3544;BME280;1786;52.870;9.578;2024-01-15T03:46:36;98508.41;;;7.09;68.32
3544;BME280;1786;52.870;9.578;2024-01-15T03:49:03;98516.53;;;7.48;67.11
3544;BME280;1786;52.870;9.578;2024-01-15T03:51:29;98502.47;;;7.49;67.38
3544;BME280;1786;52.870;9.578;2024-01-15T03:53:56;98498.69;;;7.42;67.31
3544;BME280;1786;52.870;9.578;2024-01-15T03:56:22;98491.56;;;7.53;67.11
3544;BME280;1786;52.870;9.578;2024-01-15T03:58:49;98495.88;;;7.33;67.51
3544;BME280;1786;52.870;9.578;2024-01-15T04:01:16;98495.41;;;7.49;67.51
3544;BME280;1786;52.870;9.578;2024-01-15T04:03:42;98500.00;;;7.15;67.92
3544;BME280;1786;52.870;9.578;2024-01-15T04:06:09;98496.44;;;7.16;67.32
3544;BME280;1786;52.870;9.578;2024-01-15T04:08:36;98498.09;;;6.96;68.46
3544;BME280;1786;52.870;9.578;2024-01-15T04:11:03;98495.72;;;7.35;67.45
3544;BME280;1786;52.870;9.578;2024-01-15T04:13:33;98504.50;;;7.45;67.33
3544;BME280;1786;52.870;9.578;2024-01-15T04:16:00;98505.53;;;7.12;68.14
3544;BME280;1786;52.870;9.578;2024-01-15T04:18:27;98486.69;;;6.86;68.79
3544;BME280;1786;52.870;9.578;2024-01-15T04:20:53;98492.78;;;6.75;69.43
3544;BME280;1786;52.870;9.578;2024-01-15T04:23:21;98502.59;;;6.73;69.49
3544;BME280;1786;52.870;9.578;2024-01-15T04:25:47;98498.38;;;6.82;68.97
3544;BME280;1786;52.870;9.578;2024-01-15T04:28:14;98503.34;;;7.17;68.73
3544;BME280;1786;52.870;9.578;2024-01-15T04:30:40;98526.88;;;7.40;67.63
3544;BME280;1786;52.870;9.578;2024-01-15T04:33:07;98527.28;;;7.03;68.57
3544;BME280;1786;52.870;9.578;2024-01-15T04:35:34;98509.59;;;7.05;68.31
3544;BME280;1786;52.870;9.578;2024-01-15T04:38:01;98500.03;;;7.57;66.97
3544;BME280;1786;52.870;9.578;2024-01-15T04:40:27;98490.97;;;7.50;66.85
3544;BME280;1786;52.870;9.578;2024-01-15T04:42:54;98494.31;;;7.10;67.65
3544;BME280;1786;52.870;9.578;2024-01-15T04:45:21;98479.34;;;7.22;67.75
3544;BME280;1786;52.870;9.578;2024-01-15T04:47:49;98480.03;;;7.45;67.10
3544;BME280;1786;52.870;9.578;2024-01-15T04:50:15;98491.16;;;7.58;67.15
3544;BME280;1786;52.870;9.578;2024-01-15T04:52:42;98499.00;;;7.27;67.90
3544;BME280;1786;52.870;9.578;2024-01-15T04:55:09;98489.84;;;7.73;67.01
3544;BME280;1786;52.870;9.578;2024-01-15T04:57:36;98489.25;;;7.18;67.64
3544;BME280;1786;52.870;9.578;2024-01-15T05:00:03;98485.59;;;7.30;67.91
3544;BME280;1786;52.870;9.578;2024-01-15T05:02:31;98494.22;;;7.63;66.97
3544;BME280;1786;52.870;9.578;2024-01-15T05:04:58;98502.34;;;7.29;67.45
3544;BME280;1786;52.870;9.578;2024-01-15T05:07:25;98492.38;;;7.33;67.85
3544;BME280;1786;52.870;9.578;2024-01-15T05:09:51;98477.41;;;7.45;67.45
3544;BME280;1786;52.870;9.578;2024-01-15T05:12:18;98489.88;;;7.52;67.01
3544;BME280;1786;52.870;9.578;2024-01-15T05:14:45;98478.06;;;7.89;66.32
3544;BME280;1786;52.870;9.578;2024-01-15T05:17:11;98479.06;;;7.46;66.53
3544;BME280;1786;52.870;9.578;2024-01-15T05:19:38;98481.63;;;7.57;66.35
3544;BME280;1786;52.870;9.578;2024-01-15T05:22:05;98480.47;;;7.50;66.93
3544;BME280;1786;52.870;9.578;2024-01-15T05:24:32;98477.91;;;7.59;66.20
3544;BME280;1786;52.870;9.578;2024-01-15T05:26:58;98487.72;;;7.57;66.32
3544;BME280;1786;52.870;9.578;2024-01-15T05:29:25;98481.34;;;7.60;66.21
3544;BME280;1786;52.870;9.578;2024-01-15T05:31:52;98480.28;;;8.03;65.45
3544;BME280;1786;52.870;9.578;2024-01-15T05:34:18;98468.00;;;7.73;65.79
3544;BME280;1786;52.870;9.578;2024-01-15T05:36:45;98479.53;;;7.82;66.29
3544;BME280;1786;52.870;9.578;2024-01-15T05:39:14;98474.97;;;7.32;67.27
3544;BME280;1786;52.870;9.578;2024-01-15T05:41:41;98472.56;;;6.66;69.08
3544;BME280;1786;52.870;9.578;2024-01-15T05:44:07;98473.38;;;6.66;68.77
3544;BME280;1786;52.870;9.578;2024-01-15T05:46:34;98477.19;;;6.62;69.32
3544;BME280;1786;52.870;9.578;2024-01-15T05:49:01;98470.72;;;7.41;67.70
3544;BME280;1786;52.870;9.578;2024-01-15T05:51:27;98474.28;;;7.61;67.45
3544;BME280;1786;52.870;9.578;2024-01-15T05:53:54;98476.53;;;7.65;66.18
3544;BME280;1786;52.870;9.578;2024-01-15T05:56:21;98467.88;;;7.02;68.21
3544;BME280;1786;52.870;9.578;2024-01-15T05:58:47;98479.72;;;7.17;68.14
3544;BME280;1786;52.870;9.578;2024-01-15T06:01:14;98487.28;;;7.31;67.70
3544;BME280;1786;52.870;9.578;2024-01-15T06:03:41;98471.44;;;7.64;66.48
3544;BME280;1786;52.870;9.578;2024-01-15T06:06:08;98474.78;;;7.75;66.45
3544;BME280;1786;52.870;9.578;2024-01-15T06:08:36;98472.09;;;7.56;66.37
3544;BME280;1786;52.870;9.578;2024-01-15T06:11:03;98472.16;;;7.24;67.77
3544;BME280;1786;52.870;9.578;2024-01-15T06:13:30;98472.91;;;7.56;67.01
3544;BME280;1786;52.870;9.578;2024-01-15T06:15:57;98465.50;;;7.20;67.92
3544;BME280;1786;52.870;9.578;2024-01-15T06:18:23;98468.53;;;6.83;69.26
3544;BME280;1786;52.870;9.578;2024-01-15T06:20:50;98468.44;;;7.05;69.00
3544;BME280;1786;52.870;9.578;2024-01-15T06:23:17;98473.69;;;7.47;67.66
3544;BME280;1786;52.870;9.578;2024-01-15T06:25:47;98476.44;;;7.04;68.10
3544;BME280;1786;52.870;9.578;2024-01-15T06:28:13;98491.59;;;7.00;68.53
3544;BME280;1786;52.870;9.578;2024-01-15T06:30:40;98499.00;;;7.27;67.71
3544;BME280;1786;52.870;9.578;2024-01-15T06:33:07;98484.31;;;7.97;66.01
3544;BME280;1786;52.870;9.578;2024-01-15T06:35:33;98490.31;;;8.09;65.45
3544;BME280;1786;52.870;9.578;2024-01-15T06:38:00;98495.91;;;7.64;66.73
3544;BME280;1786;52.870;9.578;2024-01-15T06:40:27;98491.59;;;7.63;66.59
3544;BME280;1786;52.870;9.578;2024-01-15T06:42:53;98483.41;;;7.35;67.25
3544;BME280;1786;52.870;9.578;2024-01-15T06:45:20;98477.38;;;7.66;66.47
3544;BME280;1786;52.870;9.578;2024-01-15T06:47:47;98479.56;;;7.61;66.34
3544;BME280;1786;52.870;9.578;2024-01-15T06:50:13;98482.06;;;7.93;66.13
3544;BME280;1786;52.870;9.578;2024-01-15T06:52:40;98490.53;;;7.96;65.26
3544;BME280;1786;52.870;9.578;2024-01-15T06:55:07;98492.53;;;8.64;64.04
3544;BME280;1786;52.870;9.578;2024-01-15T06:57:33;98498.06;;;8.61;63.84
3544;BME280;1786;52.870;9.578;2024-01-15T07:00:00;98505.00;;;7.60;66.56
3544;BME280;1786;52.870;9.578;2024-01-15T07:02:27;98499.81;;;7.70;66.43
3544;BME280;1786;52.870;9.578;2024-01-15T07:04:54;98499.13;;;7.47;67.12
3544;BME280;1786;52.870;9.578;2024-01-15T07:07:20;98498.88;;;8.11;65.62
3544;BME280;1786;52.870;9.578;2024-01-15T07:09:47;98495.59;;;7.88;65.96
3544;BME280;1786;52.870;9.578;2024-01-15T07:12:14;98497.09;;;7.81;66.33
3544;BME280;1786;52.870;9.578;2024-01-15T07:14:40;98506.94;;;8.19;65.58
3544;BME280;1786;52.870;9.578;2024-01-15T07:17:07;98494.34;;;7.83;66.20
3544;BME280;1786;52.870;9.578;2024-01-15T07:19:34;98503.88;;;8.14;65.50
3544;BME280;1786;52.870;9.578;2024-01-15T07:22:01;98498.00;;;8.01;65.54
3544;BME280;1786;52.870;9.578;2024-01-15T07:24:27;98503.88;;;7.84;66.15
3544;BME280;1786;52.870;9.578;2024-01-15T07:26:54;98489.00;;;7.21;67.78
3544;BME280;1786;52.870;9.578;2024-01-15T07:29:21;98488.91;;;7.74;66.57
3544;BME280;1786;52.870;9.578;2024-01-15T07:31:51;98490.50;;;7.87;66.04
3544;BME280;1786;52.870;9.578;2024-01-15T07:34:18;98493.72;;;7.48;66.44
3544;BME280;1786;52.870;9.578;2024-01-15T07:36:45;98507.19;;;7.55;67.28
3544;BME280;1786;52.870;9.578;2024-01-15T07:39:12;98503.47;;;7.88;66.39
3544;BME280;1786;52.870;9.578;2024-01-15T07:41:40;98513.72;;;7.61;67.23
3544;BME280;1786;52.870;9.578;2024-01-15T07:44:07;98513.28;;;7.55;66.94
3544;BME280;1786;52.870;9.578;2024-01-15T07:46:33;98522.56;;;7.59;67.47
3544;BME280;1786;52.870;9.578;2024-01-15T07:49:01;98526.34;;;7.25;67.50
3544;BME280;1786;52.870;9.578;2024-01-15T07:51:27;98533.34;;;7.35;67.88
3544;BME280;1786;52.870;9.578;2024-01-15T07:53:54;98532.72;;;7.64;67.01
3544;BME280;1786;52.870;9.578;2024-01-15T07:56:22;98523.19;;;7.94;66.19
3544;BME280;1786;52.870;9.578;2024-01-15T07:58:48;98521.44;;;8.14;65.63
3544;BME280;1786;52.870;9.578;2024-01-15T08:01:15;98524.81;;;7.64;66.58
3544;BME280;1786;52.870;9.578;2024-01-15T08:03:42;98523.50;;;7.49;67.13
3544;BME280;1786;52.870;9.578;2024-01-15T08:06:09;98534.00;;;7.49;67.37
3544;BME280;1786;52.870;9.578;2024-01-15T08:08:39;98528.97;;;7.25;67.89
3544;BME280;1786;52.870;9.578;2024-01-15T08:11:06;98536.75;;;7.47;67.35
3544;BME280;1786;52.870;9.578;2024-01-15T08:13:32;98536.63;;;7.49;67.33
3544;BME280;1786;52.870;9.578;2024-01-15T08:15:59;98548.47;;;7.64;67.07
3544;BME280;1786;52.870;9.578;2024-01-15T08:18:26;98546.28;;;7.69;66.94
3544;BME280;1786;52.870;9.578;2024-01-15T08:20:52;98530.78;;;7.24;67.57
3544;BME280;1786;52.870;9.578;2024-01-15T08:23:20;98531.16;;;7.20;67.83
3544;BME280;1786;52.870;9.578;2024-01-15T08:25:47;98530.66;;;7.47;67.18
3544;BME280;1786;52.870;9.578;2024-01-15T08:28:14;98536.16;;;7.23;67.42
3544;BME280;1786;52.870;9.578;2024-01-15T08:30:40;98543.16;;;7.33;67.81
3544;BME280;1786;52.870;9.578;2024-01-15T08:33:07;98538.28;;;7.50;67.41
3544;BME280;1786;52.870;9.578;2024-01-15T08:35:46;98542.34;;;7.54;67.23
3544;BME280;1786;52.870;9.578;2024-01-15T08:38:13;98542.53;;;7.41;67.18
3544;BME280;1786;52.870;9.578;2024-01-15T08:40:40;98532.72;;;7.64;66.99
3544;BME280;1786;52.870;9.578;2024-01-15T08:43:06;98534.44;;;7.54;66.88
3544;BME280;1786;52.870;9.578;2024-01-15T08:45:33;98545.25;;;7.40;67.71
3544;BME280;1786;52.870;9.578;2024-01-15T08:48:00;98552.38;;;7.70;66.75
3544;BME280;1786;52.870;9.578;2024-01-15T08:50:27;98567.13;;;7.82;66.32
3544;BME280;1786;52.870;9.578;2024-01-15T08:52:54;98573.75;;;7.76;66.37
3544;BME280;1786;52.870;9.578;2024-01-15T08:55:21;98560.38;;;7.26;67.55
3544;BME280;1786;52.870;9.578;2024-01-15T08:57:49;98555.69;;;6.98;68.11
3544;BME280;1786;52.870;9.578;2024-01-15T09:00:16;98561.75;;;7.42;67.12
3544;BME280;1786;52.870;9.578;2024-01-15T09:02:43;98567.94;;;7.41;66.78
3544;BME280;1786;52.870;9.578;2024-01-15T09:05:10;98561.59;;;7.22;67.37
3544;BME280;1786;52.870;9.578;2024-01-15T09:07:37;98568.91;;;7.61;66.52
3544;BME280;1786;52.870;9.578;2024-01-15T09:10:04;98554.50;;;7.55;66.52
3544;BME280;1786;52.870;9.578;2024-01-15T09:12:31;98562.53;;;8.05;65.36
3544;BME280;1786;52.870;9.578;2024-01-15T09:14:58;98562.59;;;8.15;65.13
3544;BME280;1786;52.870;9.578;2024-01-15T09:17:25;98565.75;;;8.49;64.21
3544;BME280;1786;52.870;9.578;2024-01-15T09:19:51;98565.72;;;8.70;63.18
3544;BME280;1786;52.870;9.578;2024-01-15T09:22:18;98560.53;;;8.59;63.86
3544;BME280;1786;52.870;9.578;2024-01-15T09:24:45;98557.50;;;8.63;63.12
3544;BME280;1786;52.870;9.578;2024-01-15T09:27:12;98552.75;;;8.48;63.12
3544;BME280;1786;52.870;9.578;2024-01-15T09:29:38;98567.84;;;8.15;64.21
3544;BME280;1786;52.870;9.578;2024-01-15T09:32:08;98574.75;;;7.64;65.46
3544;BME280;1786;52.870;9.578;2024-01-15T09:34:35;98579.44;;;7.82;65.77
3544;BME280;1786;52.870;9.578;2024-01-15T09:37:02;98570.22;;;7.66;65.71
3544;BME280;1786;52.870;9.578;2024-01-15T09:39:30;98576.59;;;7.73;65.34
3544;BME280;1786;52.870;9.578;2024-01-15T09:41:58;98581.25;;;7.28;66.40
3544;BME280;1786;52.870;9.578;2024-01-15T09:44:26;98583.03;;;7.39;67.10
3544;BME280;1786;52.870;9.578;2024-01-15T09:46:53;98575.13;;;7.39;66.62
3544;BME280;1786;52.870;9.578;2024-01-15T09:49:21;98587.03;;;7.43;67.08
3544;BME280;1786;52.870;9.578;2024-01-15T09:51:49;98588.47;;;7.47;66.86
3544;BME280;1786;52.870;9.578;2024-01-15T09:54:28;98590.75;;;8.03;65.85
3544;BME280;1786;52.870;9.578;2024-01-15T09:56:55;98584.88;;;8.20;65.32
3544;BME280;1786;52.870;9.578;2024-01-15T09:59:22;98584.72;;;8.43;64.64
3544;BME280;1786;52.870;9.578;2024-01-15T10:01:50;98584.81;;;8.32;65.02
3544;BME280;1786;52.870;9.578;2024-01-15T10:04:16;98583.78;;;8.54;64.25
3544;BME280;1786;52.870;9.578;2024-01-15T10:06:45;98584.28;;;8.38;64.54
3544;BME280;1786;52.870;9.578;2024-01-15T10:09:12;98586.09;;;8.78;63.73
3544;BME280;1786;52.870;9.578;2024-01-15T10:11:44;98584.97;;;8.71;63.48
3544;BME280;1786;52.870;9.578;2024-01-15T10:14:12;98581.38;;;8.81;63.48
3544;BME280;1786;52.870;9.578;2024-01-15T10:16:39;98582.09;;;8.43;63.80
3544;BME280;1786;52.870;9.578;2024-01-15T10:19:07;98586.78;;;7.88;65.24
3544;BME280;1786;52.870;9.578;2024-01-15T10:21:35;98586.34;;;7.83;65.35
3544;BME280;1786;52.870;9.578;2024-01-15T10:24:03;98588.09;;;7.72;65.50
3544;BME280;1786;52.870;9.578;2024-01-15T10:26:31;98584.88;;;7.90;64.89
3544;BME280;1786;52.870;9.578;2024-01-15T10:29:00;98586.19;;;8.05;65.20
3544;BME280;1786;52.870;9.578;2024-01-15T10:31:27;98577.63;;;7.82;65.18
3544;BME280;1786;52.870;9.578;2024-01-15T10:34:10;98588.34;;;7.69;65.81
3544;BME280;1786;52.870;9.578;2024-01-15T10:36:39;98589.41;;;7.88;65.32
3544;BME280;1786;52.870;9.578;2024-01-15T10:39:06;98576.75;;;7.72;65.43
3544;BME280;1786;52.870;9.578;2024-01-15T10:41:34;98581.22;;;7.81;65.62
3544;BME280;1786;52.870;9.578;2024-01-15T10:44:01;98570.69;;;7.81;64.81
3544;BME280;1786;52.870;9.578;2024-01-15T10:46:28;98577.75;;;7.80;65.49
3544;BME280;1786;52.870;9.578;2024-01-15T10:48:55;98573.31;;;7.81;65.14
3544;BME280;1786;52.870;9.578;2024-01-15T10:51:23;98571.47;;;7.93;65.27
3544;BME280;1786;52.870;9.578;2024-01-15T10:53:50;98576.84;;;8.43;64.03
3544;BME280;1786;52.870;9.578;2024-01-15T10:56:17;98567.47;;;7.98;64.69
3544;BME280;1786;52.870;9.578;2024-01-15T10:58:45;98579.34;;;8.23;64.33
3544;BME280;1786;52.870;9.578;2024-01-15T11:01:13;98560.69;;;7.96;64.79
3544;BME280;1786;52.870;9.578;2024-01-15T11:03:40;98568.44;;;8.28;64.59
3544;BME280;1786;52.870;9.578;2024-01-15T11:06:17;98567.72;;;8.47;63.61
3544;BME280;1786;52.870;9.578;2024-01-15T11:08:50;98570.94;;;8.30;64.70
3544;BME280;1786;52.870;9.578;2024-01-15T11:11:17;98576.69;;;8.14;64.49
3544;BME280;1786;52.870;9.578;2024-01-15T11:13:46;98562.22;;;7.98;64.74
3544;BME280;1786;52.870;9.578;2024-01-15T11:16:14;98572.34;;;8.34;64.08
3544;BME280;1786;52.870;9.578;2024-01-15T11:28:56;98573.75;;;8.07;64.44
3544;BME280;1786;52.870;9.578;2024-01-15T11:31:56;98571.84;;;7.88;65.79
3544;BME280;1786;52.870;9.578;2024-01-15T11:34:17;98564.34;;;7.84;65.12
3544;BME280;1786;52.870;9.578;2024-01-15T11:41:56;98572.50;;;8.73;63.58
3544;BME280;1786;52.870;9.578;2024-01-15T11:44:23;98566.66;;;8.59;63.43
3544;BME280;1786;52.870;9.578;2024-01-15T11:47:04;98569.06;;;8.41;64.10
3544;BME280;1786;52.870;9.578;2024-01-15T11:52:16;98564.81;;;8.19;63.86
3544;BME280;1786;52.870;9.578;2024-01-15T11:54:51;98562.97;;;7.79;65.32
3544;BME280;1786;52.870;9.578;2024-01-15T11:59:58;98547.44;;;8.38;64.51
3544;BME280;1786;52.870;9.578;2024-01-15T12:02:25;98549.19;;;8.28;64.77
3544;BME280;1786;52.870;9.578;2024-01-15T12:04:52;98559.25;;;8.13;65.41
3544;BME280;1786;52.870;9.578;2024-01-15T12:07:19;98552.25;;;8.33;64.45
3544;BME280;1786;52.870;9.578;2024-01-15T12:09:45;98557.34;;;8.55;64.46
3544;BME280;1786;52.870;9.578;2024-01-15T12:12:20;98562.72;;;9.14;63.08
3544;BME280;1786;52.870;9.578;2024-01-15T12:14:51;98563.47;;;8.65;63.77
3544;BME280;1786;52.870;9.578;2024-01-15T12:17:18;98562.25;;;8.79;63.42
3544;BME280;1786;52.870;9.578;2024-01-15T12:19:45;98558.59;;;8.20;64.70
3544;BME280;1786;52.870;9.578;2024-01-15T12:22:12;98559.97;;;8.55;64.24
3544;BME280;1786;52.870;9.578;2024-01-15T12:24:38;98556.56;;;8.84;63.71
3544;BME280;1786;52.870;9.578;2024-01-15T12:27:06;98557.03;;;9.18;62.90
3544;BME280;1786;52.870;9.578;2024-01-15T12:29:34;98560.66;;;8.17;64.55
3544;BME280;1786;52.870;9.578;2024-01-15T12:32:00;98559.06;;;8.35;63.99
3544;BME280;1786;52.870;9.578;2024-01-15T12:34:30;98559.59;;;8.29;64.37
3544;BME280;1786;52.870;9.578;2024-01-15T12:36:58;98558.16;;;8.15;64.45
3544;BME280;1786;52.870;9.578;2024-01-15T12:39:25;98559.63;;;8.08;64.78
3544;BME280;1786;52.870;9.578;2024-01-15T12:41:51;98556.38;;;8.26;64.49
3544;BME280;1786;52.870;9.578;2024-01-15T12:44:18;98566.97;;;8.05;65.22
3544;BME280;1786;52.870;9.578;2024-01-15T12:46:45;98569.44;;;8.06;65.18
3544;BME280;1786;52.870;9.578;2024-01-15T12:49:13;98562.31;;;8.49;64.15
3544;BME280;1786;52.870;9.578;2024-01-15T12:51:39;98573.34;;;8.83;63.60
3544;BME280;1786;52.870;9.578;2024-01-15T12:54:07;98565.44;;;8.73;63.64
3544;BME280;1786;52.870;9.578;2024-01-15T12:56:34;98570.03;;;8.91;63.06
3544;BME280;1786;52.870;9.578;2024-01-15T12:59:00;98575.59;;;9.17;62.34
3544;BME280;1786;52.870;9.578;2024-01-15T13:01:27;98571.72;;;9.21;62.26
3544;BME280;1786;52.870;9.578;2024-01-15T13:03:54;98573.34;;;8.83;63.27
3544;BME280;1786;52.870;9.578;2024-01-15T13:06:21;98567.06;;;8.34;64.22
3544;BME280;1786;52.870;9.578;2024-01-15T13:08:48;98569.97;;;8.61;63.43
3544;BME280;1786;52.870;9.578;2024-01-15T13:11:14;98567.06;;;8.34;64.28
3544;BME280;1786;52.870;9.578;2024-01-15T13:13:41;98565.25;;;8.55;63.67
3544;BME280;1786;52.870;9.578;2024-01-15T13:16:08;98570.25;;;8.58;63.42
3544;BME280;1786;52.870;9.578;2024-01-15T13:18:35;98566.41;;;8.72;63.79
3544;BME280;1786;52.870;9.578;2024-01-15T13:21:03;98571.53;;;8.83;63.35
3544;BME280;1786;52.870;9.578;2024-01-15T13:23:29;98565.47;;;8.93;62.77
3544;BME280;1786;52.870;9.578;2024-01-15T13:25:56;98563.63;;;8.33;64.69
3544;BME280;1786;52.870;9.578;2024-01-15T13:28:23;98554.19;;;8.71;63.94
3544;BME280;1786;52.870;9.578;2024-01-15T13:30:51;98563.59;;;8.54;64.55
3544;BME280;1786;52.870;9.578;2024-01-15T13:33:18;98569.75;;;8.13;64.81
3544;BME280;1786;52.870;9.578;2024-01-15T13:35:45;98571.72;;;8.20;65.54
3544;BME280;1786;52.870;9.578;2024-01-15T13:38:16;98576.94;;;8.82;63.89
3544;BME280;1786;52.870;9.578;2024-01-15T13:40:42;98573.69;;;8.59;64.40
3544;BME280;1786;52.870;9.578;2024-01-15T13:43:12;98584.09;;;9.30;62.89
3544;BME280;1786;52.870;9.578;2024-01-15T13:45:43;98584.06;;;9.49;62.25
3544;BME280;1786;52.870;9.578;2024-01-15T13:48:10;98583.91;;;9.22;62.72
3544;BME280;1786;52.870;9.578;2024-01-15T13:50:37;98589.34;;;9.10;63.14
3544;BME280;1786;52.870;9.578;2024-01-15T13:53:03;98586.28;;;9.15;63.32